sensor_id;sensor_type;location;lat;lon;timestamp;pressure;altitude;pressure_sealevel;temperature;humidity
70407;BME280;57821;52.202;0.154;2023-04-01T00:01:00;99783.44;;;8.65;100.00
70407;BME280;57821;52.202;0.154;2023-04-01T00:03:28;99786.03;;;8.64;100.00
70407;BME280;57821;52.202;0.154;2023-04-01T00:05:56;99776.63;;;8.58;100.00
70407;BME280;57821;52.202;0.154;2023-04-01T00:08:24;99782.69;;;8.56;100.00
70407;BME280;57821;52.202;0.154;2023-04-01T00:10:52;99798.16;;;8.57;100.00
70407;BME280;57821;52.202;0.154;2023-04-01T00:13:20;99795.59;;;8.56;100.00
70407;BME280;57821;52.202;0.154;2023-04-01T00:15:47;99802.50;;;8.54;100.00
70407;BME280;57821;52.202;0.154;2023-04-01T00:18:14;99812.00;;;8.50;100.00
70407;BME280;57821;52.202;0.154;2023-04-01T00:20:48;99806.03;;;8.47;100.00
70407;BME280;57821;52.202;0.154;2023-04-01T00:23:15;99815.53;;;8.43;100.00
70407;BME280;57821;52.202;0.154;2023-04-01T00:25:43;99806.13;;;8.38;100.00
70407;BME280;57821;52.202;0.154;2023-04-01T00:28:10;99808.75;;;8.32;100.00
70407;BME280;57821;52.202;0.154;2023-04-01T00:30:37;99818.22;;;8.30;100.00
70407;BME280;57821;52.202;0.154;2023-04-01T00:33:04;99820.81;;;8.33;100.00
70407;BME280;57821;52.202;0.154;2023-04-01T00:35:30;99825.09;;;8.34;100.00
70407;BME280;57821;52.202;0.154;2023-04-01T00:37:58;99835.47;;;8.32;100.00
70407;BME280;57821;52.202;0.154;2023-04-01T00:40:31;99830.31;;;8.24;100.00
70407;BME280;57821;52.202;0.154;2023-04-01T00:42:59;99841.47;;;8.31;100.00
70407;BME280;57821;52.202;0.154;2023-04-01T00:45:30;99842.34;;;8.30;100.00
70407;BME280;57821;52.202;0.154;2023-04-01T00:48:01;99835.47;;;8.24;100.00
70407;BME280;57821;52.202;0.154;2023-04-01T00:50:30;99839.75;;;8.27;100.00
70407;BME280;57821;52.202;0.154;2023-04-01T00:52:59;99838.06;;;8.21;100.00
70407;BME280;57821;52.202;0.154;2023-04-01T00:55:27;99858.72;;;8.26;100.00
70407;BME280;57821;52.202;0.154;2023-04-01T00:57:56;99848.44;;;8.20;100.00
70407;BME280;57821;52.202;0.154;2023-04-01T01:00:24;99853.56;;;8.21;100.00
70407;BME280;57821;52.202;0.154;2023-04-01T01:02:52;99871.66;;;8.21;100.00
70407;BME280;57821;52.202;0.154;2023-04-01T01:05:26;99869.97;;;8.20;100.00
70407;BME280;57821;52.202;0.154;2023-04-01T01:08:06;99868.25;;;8.19;100.00
70407;BME280;57821;52.202;0.154;2023-04-01T01:10:38;99861.41;;;8.12;100.00
70407;BME280;57821;52.202;0.154;2023-04-01T01:16:06;99883.75;;;8.16;100.00
70407;BME280;57821;52.202;0.154;2023-04-01T01:18:48;99870.06;;;8.08;100.00
70407;BME280;57821;52.202;0.154;2023-04-01T01:27:03;99888.94;;;8.10;100.00
70407;BME280;57821;52.202;0.154;2023-04-01T01:38:09;99913.09;;;8.06;100.00
70407;BME280;57821;52.202;0.154;2023-04-01T01:40:41;99911.38;;;8.05;100.00
70407;BME280;57821;52.202;0.154;2023-04-01T01:43:12;99913.13;;;7.99;100.00
70407;BME280;57821;52.202;0.154;2023-04-01T01:45:44;99901.13;;;7.96;100.00
70407;BME280;57821;52.202;0.154;2023-04-01T01:48:12;99926.03;;;8.02;100.00
70407;BME280;57821;52.202;0.154;2023-04-01T01:50:40;99912.31;;;7.95;100.00
70407;BME280;57821;52.202;0.154;2023-04-01T01:53:11;99920.88;;;7.99;100.00
70407;BME280;57821;52.202;0.154;2023-04-01T01:55:40;99923.44;;;8.00;100.00
70407;BME280;57821;52.202;0.154;2023-04-01T02:00:41;99929.50;;;7.95;100.00
70407;BME280;57821;52.202;0.154;2023-04-01T02:03:11;99938.13;;;7.92;100.00
70407;BME280;57821;52.202;0.154;2023-04-01T02:05:39;99945.00;;;7.98;100.00
70407;BME280;57821;52.202;0.154;2023-04-01T02:08:13;99930.44;;;7.86;100.00
70407;BME280;57821;52.202;0.154;2023-04-01T02:10:47;99929.59;;;7.82;100.00
70407;BME280;57821;52.202;0.154;2023-04-01T02:13:24;99945.00;;;7.93;100.00
70407;BME280;57821;52.202;0.154;2023-04-01T02:15:55;99948.44;;;7.95;100.00
70407;BME280;57821;52.202;0.154;2023-04-01T02:18:23;99957.91;;;7.96;100.00
70407;BME280;57821;52.202;0.154;2023-04-01T02:20:50;99945.03;;;7.87;100.00
70407;BME280;57821;52.202;0.154;2023-04-01T02:23:18;99957.91;;;7.93;100.00
70407;BME280;57821;52.202;0.154;2023-04-01T02:25:45;99947.63;;;7.87;100.00
70407;BME280;57821;52.202;0.154;2023-04-01T02:28:13;99963.09;;;7.92;100.00
70407;BME280;57821;52.202;0.154;2023-04-01T02:30:41;99969.13;;;7.91;100.00
70407;BME280;57821;52.202;0.154;2023-04-01T02:33:09;99973.41;;;7.87;100.00
70407;BME280;57821;52.202;0.154;2023-04-01T02:35:36;99982.06;;;7.86;100.00
70407;BME280;57821;52.202;0.154;2023-04-01T02:38:03;99975.22;;;7.79;100.00
70407;BME280;57821;52.202;0.154;2023-04-01T02:40:42;99979.50;;;7.75;100.00
70407;BME280;57821;52.202;0.154;2023-04-01T02:43:09;99994.97;;;7.83;100.00
70407;BME280;57821;52.202;0.154;2023-04-01T02:45:35;99993.25;;;7.80;100.00
70407;BME280;57821;52.202;0.154;2023-04-01T02:48:02;99995.00;;;7.78;100.00
70407;BME280;57821;52.202;0.154;2023-04-01T02:50:29;99999.25;;;7.81;100.00
70407;BME280;57821;52.202;0.154;2023-04-01T02:52:55;99999.28;;;7.78;100.00
70407;BME280;57821;52.202;0.154;2023-04-01T02:55:22;99995.84;;;7.76;100.00
70407;BME280;57821;52.202;0.154;2023-04-01T02:57:49;100001.91;;;7.73;100.00
70407;BME280;57821;52.202;0.154;2023-04-01T03:00:16;100001.88;;;7.75;100.00
70407;BME280;57821;52.202;0.154;2023-04-01T03:02:42;100011.34;;;7.76;100.00
70407;BME280;57821;52.202;0.154;2023-04-01T03:05:09;100012.19;;;7.78;100.00
70407;BME280;57821;52.202;0.154;2023-04-01T03:07:36;100008.78;;;7.71;100.00
70407;BME280;57821;52.202;0.154;2023-04-01T03:10:02;100019.97;;;7.73;100.00
70407;BME280;57821;52.202;0.154;2023-04-01T03:12:29;100013.97;;;7.68;100.00
70407;BME280;57821;52.202;0.154;2023-04-01T03:14:56;100011.38;;;7.64;100.00
70407;BME280;57821;52.202;0.154;2023-04-01T03:17:37;100024.28;;;7.64;100.00
70407;BME280;57821;52.202;0.154;2023-04-01T03:20:04;100026.00;;;7.65;100.00
70407;BME280;57821;52.202;0.154;2023-04-01T03:22:31;100026.84;;;7.64;100.00
70407;BME280;57821;52.202;0.154;2023-04-01T03:24:58;100033.75;;;7.62;100.00
70407;BME280;57821;52.202;0.154;2023-04-01T03:27:24;100029.47;;;7.61;100.00
70407;BME280;57821;52.202;0.154;2023-04-01T03:29:51;100025.16;;;7.63;100.00
70407;BME280;57821;52.202;0.154;2023-04-01T03:32:18;100028.59;;;7.59;100.00
70407;BME280;57821;52.202;0.154;2023-04-01T03:34:45;100042.34;;;7.64;100.00
70407;BME280;57821;52.202;0.154;2023-04-01T03:37:12;100032.03;;;7.62;100.00
70407;BME280;57821;52.202;0.154;2023-04-01T03:39:39;100038.06;;;7.63;100.00
70407;BME280;57821;52.202;0.154;2023-04-01T03:42:09;100049.22;;;7.63;100.00
70407;BME280;57821;52.202;0.154;2023-04-01T03:44:35;100039.78;;;7.59;100.00
70407;BME280;57821;52.202;0.154;2023-04-01T03:47:02;100044.94;;;7.59;100.00
70407;BME280;57821;52.202;0.154;2023-04-01T03:49:28;100049.25;;;7.62;100.00
70407;BME280;57821;52.202;0.154;2023-04-01T03:51:55;100049.25;;;7.62;100.00
70407;BME280;57821;52.202;0.154;2023-04-01T03:54:22;100062.13;;;7.59;100.00
70407;BME280;57821;52.202;0.154;2023-04-01T03:56:48;100073.31;;;7.61;100.00
70407;BME280;57821;52.202;0.154;2023-04-01T03:59:15;100063.00;;;7.55;100.00
70407;BME280;57821;52.202;0.154;2023-04-01T04:01:42;100073.34;;;7.55;100.00
70407;BME280;57821;52.202;0.154;2023-04-01T04:04:11;100074.19;;;7.52;100.00
70407;BME280;57821;52.202;0.154;2023-04-01T04:06:38;100083.66;;;7.55;100.00
70407;BME280;57821;52.202;0.154;2023-04-01T04:09:05;100081.94;;;7.54;100.00
70407;BME280;57821;52.202;0.154;2023-04-01T04:11:32;100090.53;;;7.56;100.00
70407;BME280;57821;52.202;0.154;2023-04-01T04:13:59;100092.25;;;7.55;100.00
70407;BME280;57821;52.202;0.154;2023-04-01T04:16:26;100098.28;;;7.56;100.00
70407;BME280;57821;52.202;0.154;2023-04-01T04:18:56;100092.28;;;7.51;100.00
70407;BME280;57821;52.202;0.154;2023-04-01T04:21:23;100098.25;;;7.53;100.00
70407;BME280;57821;52.202;0.154;2023-04-01T04:23:50;100109.47;;;7.56;100.00
70407;BME280;57821;52.202;0.154;2023-04-01T04:26:18;100117.16;;;7.58;100.00
70407;BME280;57821;52.202;0.154;2023-04-01T04:28:53;100106.88;;;7.53;100.00
70407;BME280;57821;52.202;0.154;2023-04-01T04:31:22;100112.03;;;7.50;100.00
70407;BME280;57821;52.202;0.154;2023-04-01T04:33:51;100124.03;;;7.57;100.00
70407;BME280;57821;52.202;0.154;2023-04-01T04:36:19;100131.81;;;7.56;100.00
70407;BME280;57821;52.202;0.154;2023-04-01T04:38:47;100126.66;;;7.54;100.00
70407;BME280;57821;52.202;0.154;2023-04-01T04:41:16;100134.38;;;7.54;100.00
70407;BME280;57821;52.202;0.154;2023-04-01T04:43:54;100124.91;;;7.52;100.00
70407;BME280;57821;52.202;0.154;2023-04-01T04:46:23;100134.38;;;7.53;100.00
70407;BME280;57821;52.202;0.154;2023-04-01T04:48:56;100128.38;;;7.49;100.00
70407;BME280;57821;52.202;0.154;2023-04-01T04:51:23;100131.81;;;7.48;100.00
70407;BME280;57821;52.202;0.154;2023-04-01T04:53:50;100138.69;;;7.51;100.00
70407;BME280;57821;52.202;0.154;2023-04-01T04:56:25;100130.09;;;7.49;100.00
70407;BME280;57821;52.202;0.154;2023-04-01T04:59:05;100136.13;;;7.49;100.00
70407;BME280;57821;52.202;0.154;2023-04-01T05:01:40;100152.47;;;7.50;100.00
70407;BME280;57821;52.202;0.154;2023-04-01T05:04:07;100139.56;;;7.45;100.00
70407;BME280;57821;52.202;0.154;2023-04-01T05:06:34;100155.88;;;7.49;100.00
70407;BME280;57821;52.202;0.154;2023-04-01T05:09:01;100163.63;;;7.47;100.00
70407;BME280;57821;52.202;0.154;2023-04-01T05:11:27;100156.75;;;7.40;100.00
70407;BME280;57821;52.202;0.154;2023-04-01T05:13:55;100166.19;;;7.46;100.00
70407;BME280;57821;52.202;0.154;2023-04-01T05:16:22;100171.38;;;7.42;100.00
70407;BME280;57821;52.202;0.154;2023-04-01T05:18:49;100171.34;;;7.46;100.00
70407;BME280;57821;52.202;0.154;2023-04-01T05:21:15;100178.25;;;7.42;100.00
70407;BME280;57821;52.202;0.154;2023-04-01T05:23:42;100188.56;;;7.43;100.00
70407;BME280;57821;52.202;0.154;2023-04-01T05:26:14;100175.69;;;7.33;100.00
70407;BME280;57821;52.202;0.154;2023-04-01T05:28:41;100189.41;;;7.41;100.00
70407;BME280;57821;52.202;0.154;2023-04-01T05:31:08;100196.31;;;7.42;100.00
70407;BME280;57821;52.202;0.154;2023-04-01T05:33:38;100199.72;;;7.41;100.00
70407;BME280;57821;52.202;0.154;2023-04-01T05:36:12;100199.75;;;7.39;100.00
70407;BME280;57821;52.202;0.154;2023-04-01T05:38:40;100195.44;;;7.38;100.00
70407;BME280;57821;52.202;0.154;2023-04-01T05:41:09;100197.16;;;7.35;100.00
70407;BME280;57821;52.202;0.154;2023-04-01T05:43:41;100198.00;;;7.35;100.00
70407;BME280;57821;52.202;0.154;2023-04-01T05:46:26;100208.34;;;7.38;100.00
70407;BME280;57821;52.202;0.154;2023-04-01T05:48:58;100211.75;;;7.40;100.00
70407;BME280;57821;52.202;0.154;2023-04-01T05:51:25;100224.66;;;7.40;100.00
70407;BME280;57821;52.202;0.154;2023-04-01T05:53:52;100217.81;;;7.38;100.00
70407;BME280;57821;52.202;0.154;2023-04-01T05:56:18;100221.25;;;7.38;100.00
70407;BME280;57821;52.202;0.154;2023-04-01T05:58:51;100216.94;;;7.33;100.00
70407;BME280;57821;52.202;0.154;2023-04-01T06:01:20;100224.66;;;7.34;100.00
70407;BME280;57821;52.202;0.154;2023-04-01T06:03:47;100229.84;;;7.39;100.00
70407;BME280;57821;52.202;0.154;2023-04-01T06:06:24;100235.00;;;7.33;100.00
70407;BME280;57821;52.202;0.154;2023-04-01T06:08:56;100233.28;;;7.33;100.00
70407;BME280;57821;52.202;0.154;2023-04-01T06:16:48;100249.63;;;7.38;100.00
70407;BME280;57821;52.202;0.154;2023-04-01T06:19:39;100254.75;;;7.35;100.00
70407;BME280;57821;52.202;0.154;2023-04-01T06:25:18;100254.78;;;7.38;100.00
70407;BME280;57821;52.202;0.154;2023-04-01T06:36:06;100265.91;;;7.34;100.00
70407;BME280;57821;52.202;0.154;2023-04-01T06:38:46;100273.66;;;7.34;100.00
70407;BME280;57821;52.202;0.154;2023-04-01T06:41:33;100277.97;;;7.32;100.00
70407;BME280;57821;52.202;0.154;2023-04-01T06:44:16;100289.13;;;7.31;100.00
70407;BME280;57821;52.202;0.154;2023-04-01T06:56:04;100302.88;;;7.29;100.00
70407;BME280;57821;52.202;0.154;2023-04-01T06:58:42;100307.19;;;7.31;100.00
70407;BME280;57821;52.202;0.154;2023-04-01T07:01:14;100308.91;;;7.29;100.00
70407;BME280;57821;52.202;0.154;2023-04-01T07:03:48;100315.78;;;7.35;100.00
70407;BME280;57821;52.202;0.154;2023-04-01T07:06:30;100319.22;;;7.35;100.00
70407;BME280;57821;52.202;0.154;2023-04-01T07:09:02;100333.88;;;7.38;100.00
70407;BME280;57821;52.202;0.154;2023-04-01T07:11:53;100312.34;;;7.31;100.00
70407;BME280;57821;52.202;0.154;2023-04-01T07:14:41;100314.06;;;7.35;100.00
70407;BME280;57821;52.202;0.154;2023-04-01T07:17:31;100328.69;;;7.33;100.00
70407;BME280;57821;52.202;0.154;2023-04-01T07:20:16;100332.13;;;7.35;100.00
70407;BME280;57821;52.202;0.154;2023-04-01T07:22:46;100326.13;;;7.36;100.00
70407;BME280;57821;52.202;0.154;2023-04-01T07:25:44;100333.88;;;7.44;100.00
70407;BME280;57821;52.202;0.154;2023-04-01T07:28:32;100338.16;;;7.47;100.00
70407;BME280;57821;52.202;0.154;2023-04-01T07:42:41;100357.97;;;7.54;100.00
70407;BME280;57821;52.202;0.154;2023-04-01T07:48:25;100354.56;;;7.56;100.00
70407;BME280;57821;52.202;0.154;2023-04-01T07:51:15;100358.84;;;7.62;100.00
70407;BME280;57821;52.202;0.154;2023-04-01T07:56:54;100374.34;;;7.62;100.00
70407;BME280;57821;52.202;0.154;2023-04-01T08:05:51;100394.13;;;7.64;100.00
70407;BME280;57821;52.202;0.154;2023-04-01T08:14:19;100408.75;;;7.67;100.00
70407;BME280;57821;52.202;0.154;2023-04-01T08:23:13;100425.09;;;7.66;100.00
70407;BME280;57821;52.202;0.154;2023-04-01T08:28:46;100425.97;;;7.71;100.00
70407;BME280;57821;52.202;0.154;2023-04-01T08:31:36;100432.00;;;7.76;100.00
70407;BME280;57821;52.202;0.154;2023-04-01T08:34:10;100443.19;;;7.79;100.00
70407;BME280;57821;52.202;0.154;2023-04-01T08:36:45;100436.28;;;7.75;100.00
70407;BME280;57821;52.202;0.154;2023-04-01T08:39:19;100443.19;;;7.82;100.00
70407;BME280;57821;52.202;0.154;2023-04-01T08:42:29;100454.41;;;7.86;100.00
70407;BME280;57821;52.202;0.154;2023-04-01T08:45:18;100455.25;;;7.88;100.00
70407;BME280;57821;52.202;0.154;2023-04-01T08:51:18;100469.06;;;7.92;100.00
70407;BME280;57821;52.202;0.154;2023-04-01T08:53:59;100463.00;;;7.93;100.00
70407;BME280;57821;52.202;0.154;2023-04-01T08:56:40;100461.31;;;7.92;100.00
70407;BME280;57821;52.202;0.154;2023-04-01T09:14:33;100469.88;;;7.88;100.00
70407;BME280;57821;52.202;0.154;2023-04-01T09:18:11;100493.13;;;7.95;100.00
70407;BME280;57821;52.202;0.154;2023-04-01T09:26:27;100497.47;;;8.08;100.00
70407;BME280;57821;52.202;0.154;2023-04-01T09:29:18;100508.66;;;8.10;100.00
70407;BME280;57821;52.202;0.154;2023-04-01T09:32:16;100506.97;;;8.09;100.00
70407;BME280;57821;52.202;0.154;2023-04-01T09:44:22;100508.69;;;8.16;100.00
70407;BME280;57821;52.202;0.154;2023-04-01T09:52:25;100534.59;;;8.42;100.00
70407;BME280;57821;52.202;0.154;2023-04-01T09:55:32;100530.28;;;8.43;100.00
70407;BME280;57821;52.202;0.154;2023-04-01T10:13:33;100560.44;;;8.53;100.00
70407;BME280;57821;52.202;0.154;2023-04-01T10:20:54;100567.34;;;8.54;100.00
70407;BME280;57821;52.202;0.154;2023-04-01T10:23:53;100571.66;;;8.53;100.00
70407;BME280;57821;52.202;0.154;2023-04-01T10:29:31;100576.78;;;8.40;100.00
70407;BME280;57821;52.202;0.154;2023-04-01T10:32:47;100591.44;;;8.41;100.00
70407;BME280;57821;52.202;0.154;2023-04-01T10:38:51;100597.44;;;8.31;100.00
70407;BME280;57821;52.202;0.154;2023-04-01T10:56:21;100613.75;;;8.30;100.00
70407;BME280;57821;52.202;0.154;2023-04-01T11:17:49;100635.38;;;8.42;100.00
70407;BME280;57821;52.202;0.154;2023-04-01T11:20:05;100648.28;;;8.44;100.00
70407;BME280;57821;52.202;0.154;2023-04-01T11:25:29;100662.09;;;8.52;100.00
70407;BME280;57821;52.202;0.154;2023-04-01T11:31:20;100665.56;;;8.69;100.00
70407;BME280;57821;52.202;0.154;2023-04-01T11:36:34;100675.09;;;8.76;100.00
70407;BME280;57821;52.202;0.154;2023-04-01T11:39:13;100678.53;;;8.78;100.00
70407;BME280;57821;52.202;0.154;2023-04-01T11:50:44;100688.03;;;8.84;100.00
70407;BME280;57821;52.202;0.154;2023-04-01T11:53:23;100698.41;;;9.02;100.00
70407;BME280;57821;52.202;0.154;2023-04-01T11:56:02;100694.09;;;9.16;100.00
70407;BME280;57821;52.202;0.154;2023-04-01T11:58:59;100706.19;;;9.22;100.00
70407;BME280;57821;52.202;0.154;2023-04-01T12:01:39;100698.44;;;9.22;100.00
70407;BME280;57821;52.202;0.154;2023-04-01T12:04:19;100713.09;;;9.32;100.00
70407;BME280;57821;52.202;0.154;2023-04-01T12:07:02;100723.47;;;9.36;100.00
70407;BME280;57821;52.202;0.154;2023-04-01T12:09:49;100723.47;;;9.36;100.00
70407;BME280;57821;52.202;0.154;2023-04-01T12:15:30;100730.38;;;9.37;100.00
70407;BME280;57821;52.202;0.154;2023-04-01T12:24:02;100743.31;;;9.63;100.00
70407;BME280;57821;52.202;0.154;2023-04-01T12:27:00;100749.34;;;9.73;100.00
70407;BME280;57821;52.202;0.154;2023-04-01T12:32:23;100745.88;;;9.94;100.00
70407;BME280;57821;52.202;0.154;2023-04-01T12:34:59;100751.03;;;10.03;100.00
70407;BME280;57821;52.202;0.154;2023-04-01T12:37:45;100744.16;;;10.00;100.00
70407;BME280;57821;52.202;0.154;2023-04-01T12:45:40;100743.28;;;10.06;100.00
70407;BME280;57821;52.202;0.154;2023-04-01T12:53:47;100763.97;;;10.36;100.00
70407;BME280;57821;52.202;0.154;2023-04-01T13:01:52;100779.50;;;10.39;100.00
70407;BME280;57821;52.202;0.154;2023-04-01T13:07:22;100782.09;;;10.38;100.00
70407;BME280;57821;52.202;0.154;2023-04-01T13:10:20;100782.09;;;10.33;100.00
70407;BME280;57821;52.202;0.154;2023-04-01T13:15:52;100782.97;;;10.37;100.00
70407;BME280;57821;52.202;0.154;2023-04-01T13:23:35;100777.81;;;10.31;100.00
70407;BME280;57821;52.202;0.154;2023-04-01T13:34:13;100802.81;;;10.44;100.00
70407;BME280;57821;52.202;0.154;2023-04-01T13:36:52;100820.09;;;10.48;100.00
70407;BME280;57821;52.202;0.154;2023-04-01T13:42:12;100811.47;;;10.40;100.00
70407;BME280;57821;52.202;0.154;2023-04-01T13:44:54;100822.69;;;10.43;100.00
70407;BME280;57821;52.202;0.154;2023-04-01T14:01:28;100839.09;;;10.44;100.00
70407;BME280;57821;52.202;0.154;2023-04-01T14:04:17;100850.34;;;10.41;100.00
70407;BME280;57821;52.202;0.154;2023-04-01T14:07:10;100846.91;;;10.30;100.00
70407;BME280;57821;52.202;0.154;2023-04-01T14:09:44;100857.28;;;10.36;100.00
70407;BME280;57821;52.202;0.154;2023-04-01T14:13:37;100858.97;;;10.37;100.00
70407;BME280;57821;52.202;0.154;2023-04-01T14:21:34;100875.41;;;10.33;100.00
70407;BME280;57821;52.202;0.154;2023-04-01T14:29:53;100887.50;;;10.28;100.00
70407;BME280;57821;52.202;0.154;2023-04-01T14:32:40;100886.66;;;10.24;100.00
70407;BME280;57821;52.202;0.154;2023-04-01T14:43:51;100896.97;;;10.14;100.00
70407;BME280;57821;52.202;0.154;2023-04-01T14:49:28;100908.22;;;10.01;100.00
70407;BME280;57821;52.202;0.154;2023-04-01T14:52:04;100908.16;;;9.90;100.00
70407;BME280;57821;52.202;0.154;2023-04-01T14:54:37;100921.13;;;9.92;100.00
70407;BME280;57821;52.202;0.154;2023-04-01T15:02:37;100917.66;;;9.80;100.00
70407;BME280;57821;52.202;0.154;2023-04-01T15:11:20;100942.72;;;9.83;100.00
70407;BME280;57821;52.202;0.154;2023-04-01T15:19:36;100960.81;;;9.75;100.00
70407;BME280;57821;52.202;0.154;2023-04-01T15:25:13;100957.31;;;9.64;100.00
70407;BME280;57821;52.202;0.154;2023-04-01T15:28:16;100966.81;;;9.65;100.00
70407;BME280;57821;52.202;0.154;2023-04-01T15:38:51;100989.22;;;9.54;100.00
70407;BME280;57821;52.202;0.154;2023-04-01T15:46:54;100994.34;;;9.49;100.00
70407;BME280;57821;52.202;0.154;2023-04-01T15:49:42;101009.91;;;9.48;100.00
70407;BME280;57821;52.202;0.154;2023-04-01T15:58:32;101034.88;;;9.40;100.00
70407;BME280;57821;52.202;0.154;2023-04-01T16:06:21;101039.13;;;9.30;100.00
70407;BME280;57821;52.202;0.154;2023-04-01T16:09:08;101047.78;;;9.38;100.00
70407;BME280;57821;52.202;0.154;2023-04-01T16:11:57;101059.00;;;9.36;100.00
70407;BME280;57821;52.202;0.154;2023-04-01T16:19:49;101063.16;;;9.11;100.00
70407;BME280;57821;52.202;0.154;2023-04-01T16:22:49;101076.94;;;9.10;100.00
70407;BME280;57821;52.202;0.154;2023-04-01T16:25:29;101063.91;;;8.96;100.00
70407;BME280;57821;52.202;0.154;2023-04-01T16:30:47;101088.03;;;8.97;100.00
70407;BME280;57821;52.202;0.154;2023-04-01T16:39:11;101088.78;;;8.85;100.00
70407;BME280;57821;52.202;0.154;2023-04-01T16:41:36;101086.13;;;8.75;100.00
70407;BME280;57821;52.202;0.154;2023-04-01T16:46:52;101086.91;;;8.64;100.00
70407;BME280;57821;52.202;0.154;2023-04-01T16:49:27;101102.47;;;8.71;100.00
70407;BME280;57821;52.202;0.154;2023-04-01T16:55:14;101119.72;;;8.72;100.00
70407;BME280;57821;52.202;0.154;2023-04-01T16:58:00;101110.97;;;8.59;100.00
70407;BME280;57821;52.202;0.154;2023-04-01T17:00:28;101133.41;;;8.63;100.00
70407;BME280;57821;52.202;0.154;2023-04-01T17:05:55;101134.19;;;8.54;100.00
70407;BME280;57821;52.202;0.154;2023-04-01T17:08:30;101147.13;;;8.57;100.00
70407;BME280;57821;52.202;0.154;2023-04-01T17:14:33;101153.06;;;8.50;100.00
70407;BME280;57821;52.202;0.154;2023-04-01T17:17:29;101164.28;;;8.49;100.00
70407;BME280;57821;52.202;0.154;2023-04-01T17:20:20;101178.03;;;8.47;100.00
70407;BME280;57821;52.202;0.154;2023-04-01T17:22:55;101181.47;;;8.44;100.00
70407;BME280;57821;52.202;0.154;2023-04-01T17:28:28;101190.00;;;8.40;100.00
70407;BME280;57821;52.202;0.154;2023-04-01T17:33:42;101197.69;;;8.33;100.00
70407;BME280;57821;52.202;0.154;2023-04-01T17:42:01;101219.94;;;8.27;100.00
70407;BME280;57821;52.202;0.154;2023-04-01T17:47:36;101230.28;;;8.27;100.00
70407;BME280;57821;52.202;0.154;2023-04-01T17:52:59;101244.06;;;8.27;100.00
70407;BME280;57821;52.202;0.154;2023-04-01T17:58:20;101244.03;;;8.23;100.00
70407;BME280;57821;52.202;0.154;2023-04-01T18:06:25;101260.50;;;8.30;100.00
70407;BME280;57821;52.202;0.154;2023-04-01T18:17:01;101281.94;;;8.24;100.00
70407;BME280;57821;52.202;0.154;2023-04-01T18:33:42;101330.81;;;8.12;100.00
70407;BME280;57821;52.202;0.154;2023-04-01T18:38:52;101331.53;;;8.02;100.00
70407;BME280;57821;52.202;0.154;2023-04-01T18:49:39;101362.34;;;7.93;100.00
70407;BME280;57821;52.202;0.154;2023-04-01T18:52:16;101364.06;;;7.91;100.00
70407;BME280;57821;52.202;0.154;2023-04-01T18:57:53;101379.44;;;7.87;100.00
70407;BME280;57821;52.202;0.154;2023-04-01T19:00:25;101374.19;;;7.79;100.00
70407;BME280;57821;52.202;0.154;2023-04-01T19:03:07;101394.94;;;7.85;100.00
70407;BME280;57821;52.202;0.154;2023-04-01T19:05:38;101389.72;;;7.82;100.00
70407;BME280;57821;52.202;0.154;2023-04-01T19:08:30;101408.69;;;7.84;100.00
70407;BME280;57821;52.202;0.154;2023-04-01T19:13:57;101413.75;;;7.78;100.00
70407;BME280;57821;52.202;0.154;2023-04-01T19:16:49;101414.53;;;7.74;100.00
70407;BME280;57821;52.202;0.154;2023-04-01T19:21:57;101424.81;;;7.72;100.00
70407;BME280;57821;52.202;0.154;2023-04-01T19:27:33;101443.69;;;7.68;100.00
70407;BME280;57821;52.202;0.154;2023-04-01T19:35:29;101443.50;;;7.59;100.00
70407;BME280;57821;52.202;0.154;2023-04-01T19:38:10;101448.69;;;7.61;100.00
70407;BME280;57821;52.202;0.154;2023-04-01T19:40:47;101455.66;;;7.65;100.00
70407;BME280;57821;52.202;0.154;2023-04-01T19:49:29;101466.69;;;7.58;100.00
70407;BME280;57821;52.202;0.154;2023-04-01T19:52:00;101470.13;;;7.57;100.00
70407;BME280;57821;52.202;0.154;2023-04-01T19:54:43;101471.81;;;7.55;100.00
70407;BME280;57821;52.202;0.154;2023-04-01T19:57:30;101474.34;;;7.53;100.00
70407;BME280;57821;52.202;0.154;2023-04-01T20:08:28;101507.94;;;7.55;100.00
70407;BME280;57821;52.202;0.154;2023-04-01T20:11:18;101508.75;;;7.54;100.00
70407;BME280;57821;52.202;0.154;2023-04-01T20:16:15;101521.66;;;7.54;100.00
70407;BME280;57821;52.202;0.154;2023-04-01T20:18:47;101519.03;;;7.52;100.00
70407;BME280;57821;52.202;0.154;2023-04-01T20:21:20;101529.38;;;7.51;100.00
70407;BME280;57821;52.202;0.154;2023-04-01T20:24:07;101524.19;;;7.51;100.00
70407;BME280;57821;52.202;0.154;2023-04-01T20:26:43;101533.59;;;7.49;100.00
70407;BME280;57821;52.202;0.154;2023-04-01T20:45:32;101544.72;;;7.45;100.00
70407;BME280;57821;52.202;0.154;2023-04-01T20:51:06;101568.06;;;7.51;100.00
70407;BME280;57821;52.202;0.154;2023-04-01T20:53:50;101575.81;;;7.51;100.00
70407;BME280;57821;52.202;0.154;2023-04-01T20:56:35;101574.94;;;7.52;100.00
70407;BME280;57821;52.202;0.154;2023-04-01T21:04:54;101569.47;;;7.36;100.00
70407;BME280;57821;52.202;0.154;2023-04-01T21:10:29;101592.78;;;7.39;100.00
70407;BME280;57821;52.202;0.154;2023-04-01T21:13:14;101608.34;;;7.44;100.00
70407;BME280;57821;52.202;0.154;2023-04-01T21:16:01;101608.34;;;7.44;100.00
70407;BME280;57821;52.202;0.154;2023-04-01T21:35:29;101645.06;;;7.32;100.00
70407;BME280;57821;52.202;0.154;2023-04-01T21:38:25;101655.38;;;7.32;100.00
70407;BME280;57821;52.202;0.154;2023-04-01T21:47:35;101663.94;;;7.31;100.00
70407;BME280;57821;52.202;0.154;2023-04-01T21:50:42;101677.69;;;7.30;100.00
70407;BME280;57821;52.202;0.154;2023-04-01T22:06:34;101705.06;;;7.25;100.00
70407;BME280;57821;52.202;0.154;2023-04-01T22:12:07;101699.59;;;7.13;100.00